Time;durP1;ratioP1;P1;durP2;ratioP2;P2;SDS_P1;SDS_P2;PMS_P1;PMS_P2;Temp;Humidity;BMP_temperature;BMP_pressure;BME280_temperature;BME280_humidity;BME280_pressure;Samples;Min_cycle;Max_cycle;Signal;HPM_P1;HPM_P2
2022/04/19 00:02:28;;;;;;;13.75;10.52;;;;;;;7.74;74.41;101299.59;5344586;27;20065;-61
2022/04/19 00:04:59;;;;;;;14.95;10.35;;;;;;;7.62;74.40;101307.31;5345378;27;20030;-61
2022/04/19 00:07:31;;;;;;;13.35;9.90;;;;;;;7.57;74.47;101301.41;5344685;27;20074;-61
2022/04/19 00:10:05;;;;;;;12.23;10.50;;;;;;;7.62;74.74;101301.16;5343359;27;20053;-61
2022/04/19 00:12:36;;;;;;;15.02;10.63;;;;;;;7.59;75.79;101298.66;5344499;27;20380;-61
2022/04/19 00:15:08;;;;;;;12.93;9.82;;;;;;;7.53;74.23;101299.88;5342398;27;20042;-61
2022/04/19 00:17:39;;;;;;;14.13;10.13;;;;;;;7.44;73.51;101297.72;5342925;27;20060;-61
2022/04/19 00:20:10;;;;;;;13.20;10.73;;;;;;;7.45;76.57;101299.44;5346303;27;20031;-61
2022/04/19 00:22:42;;;;;;;14.23;10.55;;;;;;;7.47;76.20;101297.56;5343257;27;20173;-61
2022/04/19 00:25:13;;;;;;;14.25;9.95;;;;;;;7.34;74.58;101291.22;5337902;27;20022;-61
2022/04/19 00:27:45;;;;;;;15.43;10.77;;;;;;;7.36;79.46;101289.34;5343062;27;20022;-61
2022/04/19 00:30:16;;;;;;;16.10;10.48;;;;;;;7.44;79.16;101293.28;5352506;27;20030;-61
2022/04/19 00:32:47;;;;;;;15.25;10.23;;;;;;;7.33;80.00;101292.19;5344736;27;20030;-61
2022/04/19 00:35:19;;;;;;;13.95;10.27;;;;;;;7.31;78.43;101289.63;5351222;27;20026;-61
2022/04/19 00:37:50;;;;;;;14.10;10.63;;;;;;;7.29;79.46;101280.88;5352961;27;20068;-61
2022/04/19 00:40:21;;;;;;;13.27;10.07;;;;;;;7.22;78.22;101282.16;5344996;27;21468;-61
2022/04/19 00:42:56;;;;;;;12.77;10.38;;;;;;;7.25;81.19;101277.53;5348233;27;20019;-61
2022/04/19 00:45:27;;;;;;;13.57;9.45;;;;;;;7.23;78.28;101289.19;5342454;27;20096;-61
2022/04/19 00:47:58;;;;;;;13.50;10.23;;;;;;;7.21;80.80;101283.09;5356871;27;20022;-61
2022/04/19 00:50:31;;;;;;;14.15;9.48;;;;;;;7.10;77.96;101282.84;5353394;27;20117;-61
2022/04/19 00:53:03;;;;;;;11.98;9.98;;;;;;;7.17;79.62;101286.84;5344489;27;20046;-61
2022/04/19 00:55:34;;;;;;;12.82;9.88;;;;;;;6.98;77.26;101287.00;5349823;27;20372;-61
2022/04/19 00:58:06;;;;;;;12.98;10.32;;;;;;;7.12;82.23;101287.13;5354180;27;20751;-61
2022/04/19 01:00:37;;;;;;;12.35;9.63;;;;;;;6.93;78.15;101284.59;5348355;27;20079;-61
2022/04/19 01:03:09;;;;;;;12.43;10.20;;;;;;;6.99;80.98;101288.72;5346321;27;20510;-61
2022/04/19 01:05:44;;;;;;;15.05;9.38;;;;;;;6.98;80.64;101289.66;5342580;27;20037;-61
2022/04/19 01:08:15;;;;;;;12.20;9.55;;;;;;;6.93;81.10;101286.41;5344406;27;20122;-61
2022/04/19 01:10:46;;;;;;;15.85;10.07;;;;;;;6.77;78.58;101289.88;5344457;27;20458;-61
2022/04/19 01:13:17;;;;;;;13.10;10.18;;;;;;;6.74;78.55;101290.03;5338647;27;20042;-61
2022/04/19 01:15:49;;;;;;;16.80;10.73;;;;;;;6.73;78.19;101282.16;5344447;27;20047;-61
2022/04/19 01:18:24;;;;;;;16.83;12.48;;;;;;;6.67;78.85;101280.69;5352461;27;20023;-61
2022/04/19 01:20:55;;;;;;;;;;;;;;;6.76;76.31;101274.06;5345419;27;20034;-61
2022/04/19 01:23:29;;;;;;;15.93;12.57;;;;;;;6.63;77.54;101279.16;5337825;27;20041;-61
2022/04/19 01:26:02;;;;;;;17.58;12.98;;;;;;;6.55;77.84;101266.28;5348505;27;20075;-61
2022/04/19 01:28:33;;;;;;;18.40;13.65;;;;;;;6.62;81.87;101265.03;5340141;27;20037;-61
2022/04/19 01:31:06;;;;;;;18.85;13.88;;;;;;;6.52;78.19;101271.78;5341564;27;20023;-61
2022/04/19 01:33:37;;;;;;;17.38;14.45;;;;;;;6.56;81.22;101265.38;5344521;27;20114;-61
2022/04/19 01:36:09;;;;;;;19.02;14.65;;;;;;;6.60;79.66;101271.38;5348318;27;20037;-61
2022/04/19 01:38:40;;;;;;;18.25;14.57;;;;;;;6.53;80.06;101272.63;5350293;27;20102;-61
2022/04/19 01:41:12;;;;;;;16.75;13.73;;;;;;;6.48;78.90;101270.19;5353604;27;20022;-61
2022/04/19 01:43:44;;;;;;;20.73;14.98;;;;;;;6.37;78.75;101267.28;5355184;27;20023;-61
2022/04/19 01:46:17;;;;;;;20.52;15.32;;;;;;;6.42;79.10;101265.22;5351136;27;20091;-61
2022/04/19 01:48:49;;;;;;;19.10;14.55;;;;;;;6.35;78.04;101264.72;5352366;27;20544;-61
2022/04/19 01:51:21;;;;;;;20.45;15.80;;;;;;;6.40;79.07;101265.31;5346706;27;20464;-61
2022/04/19 01:53:55;;;;;;;18.60;14.95;;;;;;;6.40;80.13;101269.75;5345403;27;20087;-61
2022/04/19 01:56:26;;;;;;;19.75;15.45;;;;;;;6.24;77.54;101273.19;5352400;27;20030;-61
2022/04/19 01:58:57;;;;;;;19.85;15.50;;;;;;;6.32;79.61;101264.00;5354455;27;20031;-61
2022/04/19 02:01:29;;;;;;;21.15;15.80;;;;;;;6.18;77.85;101259.44;5350230;27;20033;-61
2022/04/19 02:04:00;;;;;;;19.83;15.60;;;;;;;6.14;76.73;101269.31;5352866;27;20074;-61
2022/04/19 02:06:31;;;;;;;22.27;16.23;;;;;;;6.27;79.74;101266.88;5349265;27;20501;-61
2022/04/19 02:09:03;;;;;;;19.98;16.23;;;;;;;6.15;78.61;101265.72;5359142;27;20507;-61
2022/04/19 02:11:34;;;;;;;24.13;16.67;;;;;;;6.10;78.40;101257.16;5349828;27;20030;-61
2022/04/19 02:14:06;;;;;;;22.58;16.35;;;;;;;6.04;78.67;101263.63;5349654;27;20023;-61
2022/04/19 02:16:38;;;;;;;21.52;16.38;;;;;;;6.00;78.31;101262.09;5347778;27;20067;-61
2022/04/19 02:19:09;;;;;;;20.88;16.33;;;;;;;6.12;80.60;101257.94;5346336;27;22062;-61
2022/04/19 02:21:40;;;;;;;22.05;15.30;;;;;;;6.09;78.74;101261.59;5347652;27;20035;-61
2022/04/19 02:24:12;;;;;;;22.02;15.20;;;;;;;6.00;78.51;101253.25;5352589;27;20091;-61
2022/04/19 02:26:43;;;;;;;21.33;15.80;;;;;;;5.96;78.34;101252.53;5350351;27;20031;-61
2022/04/19 02:29:16;;;;;;;23.92;16.52;;;;;;;5.88;78.52;101244.97;5355302;27;20166;-61
2022/04/19 02:31:47;;;;;;;22.02;16.92;;;;;;;6.01;82.93;101254.97;5350484;27;20187;-61
2022/04/19 02:34:19;;;;;;;21.73;16.50;;;;;;;5.94;81.47;101249.09;5351855;27;20034;-61
2022/04/19 02:36:53;;;;;;;23.27;15.95;;;;;;;5.83;80.22;101246.13;5353271;27;20093;-61
2022/04/19 02:39:24;;;;;;;20.13;15.38;;;;;;;5.87;79.28;101248.56;5348056;27;20082;-61
2022/04/19 02:41:55;;;;;;;19.05;15.13;;;;;;;5.97;79.17;101243.69;5358859;27;20430;-61
2022/04/19 02:44:27;;;;;;;23.13;16.88;;;;;;;5.89;80.93;101256.44;5353646;27;20601;-61
2022/04/19 02:46:58;;;;;;;23.85;16.17;;;;;;;5.85;80.22;101245.13;5356524;27;20022;-61
2022/04/19 02:49:30;;;;;;;22.85;16.20;;;;;;;5.89;80.07;101246.69;5356446;27;20039;-61
2022/04/19 02:52:01;;;;;;;21.50;16.92;;;;;;;5.82;82.18;101247.06;5355242;27;20023;-61
2022/04/19 02:54:33;;;;;;;23.13;17.77;;;;;;;5.74;81.65;101243.97;5361518;27;20075;-61
2022/04/19 02:57:05;;;;;;;23.08;16.92;;;;;;;5.76;82.27;101242.09;5347010;27;20471;-61
2022/04/19 02:59:37;;;;;;;21.00;16.80;;;;;;;5.68;81.39;101239.81;5346948;27;20098;-61
2022/04/19 03:02:08;;;;;;;22.02;16.55;;;;;;;5.75;82.84;101235.06;5345998;27;20046;-61
2022/04/19 03:04:40;;;;;;;22.48;16.35;;;;;;;5.77;81.81;101233.19;5345752;27;20079;-61
2022/04/19 03:07:14;;;;;;;20.23;16.38;;;;;;;5.67;83.90;101235.44;5345921;27;20035;-61
2022/04/19 03:09:45;;;;;;;21.20;16.02;;;;;;;5.55;81.09;101236.91;5347602;27;20075;-61
2022/04/19 03:12:16;;;;;;;20.10;15.70;;;;;;;5.73;81.68;101234.28;5353844;27;20417;-61
2022/04/19 03:14:47;;;;;;;22.98;16.65;;;;;;;5.64;83.82;101233.81;5349023;27;20480;-61
2022/04/19 03:17:18;;;;;;;21.23;16.27;;;;;;;5.50;83.33;101239.81;5345417;27;20650;-61
2022/04/19 03:19:50;;;;;;;19.92;16.38;;;;;;;5.60;83.20;101229.63;5350727;27;20073;-61
2022/04/19 03:22:21;;;;;;;20.83;16.60;;;;;;;5.57;85.72;101234.19;5345542;27;20037;-61
2022/04/19 03:27:42;;;;;;;21.92;16.42;;;;;;;5.44;83.84;101229.50;5346359;27;20043;-61
2022/04/19 03:30:14;;;;;;;20.33;15.77;;;;;;;5.33;83.28;101234.47;5346119;27;20031;-61
2022/04/19 03:32:45;;;;;;;23.08;15.05;;;;;;;5.37;83.95;101238.69;5352003;27;20160;-61
2022/04/19 03:35:17;;;;;;;23.17;16.38;;;;;;;5.39;85.44;101236.81;5342742;27;20035;-61
2022/04/19 03:37:49;;;;;;;20.75;15.75;;;;;;;5.39;85.74;101239.47;5344903;27;20365;-61
2022/04/19 03:40:20;;;;;;;22.05;15.25;;;;;;;5.28;83.35;101242.63;5325231;27;20539;-61
2022/04/19 03:42:54;;;;;;;18.38;15.05;;;;;;;5.37;84.66;101240.44;5352624;27;20026;-61
2022/04/19 03:45:25;;;;;;;20.75;15.20;;;;;;;5.22;83.17;101239.44;5351925;27;20544;-61
2022/04/19 03:47:56;;;;;;;21.40;15.70;;;;;;;5.30;84.64;101234.63;5347574;27;20035;-61
2022/04/19 03:50:28;;;;;;;21.98;15.35;;;;;;;5.12;84.03;101233.72;5345279;27;20113;-61
2022/04/19 03:52:59;;;;;;;19.20;14.70;;;;;;;5.10;83.81;101241.72;5345059;27;20977;-61
2022/04/19 03:55:30;;;;;;;18.08;14.52;;;;;;;5.21;85.55;101233.25;5342548;27;20523;-61
2022/04/19 03:58:03;;;;;;;20.48;15.00;;;;;;;5.23;86.95;101241.97;5345802;27;20027;-61
2022/04/19 04:00:34;;;;;;;19.25;14.98;;;;;;;5.09;85.50;101236.50;5343139;27;20388;-61
2022/04/19 04:03:06;;;;;;;21.02;15.30;;;;;;;5.08;85.30;101242.69;5345374;27;20069;-61
2022/04/19 04:05:38;;;;;;;21.10;15.80;;;;;;;5.10;84.69;101240.84;5347131;27;20026;-61
2022/04/19 04:08:09;;;;;;;24.33;15.88;;;;;;;5.00;85.54;101242.22;5344429;27;20030;-61
2022/04/19 04:10:41;;;;;;;19.70;15.18;;;;;;;4.95;83.94;101238.91;5345826;27;20065;-61
2022/04/19 04:13:12;;;;;;;19.73;14.75;;;;;;;4.99;84.22;101241.38;5327120;27;20745;-61
2022/04/19 04:15:43;;;;;;;20.02;15.32;;;;;;;5.05;85.00;101245.50;5345197;27;20050;-61
2022/04/19 04:18:15;;;;;;;19.30;14.80;;;;;;;4.91;84.13;101246.16;5346446;27;20456;-61
2022/04/19 04:20:47;;;;;;;21.05;14.80;;;;;;;4.93;84.41;101241.66;5350573;27;20635;-61
2022/04/19 04:23:18;;;;;;;21.98;15.45;;;;;;;4.99;85.54;101248.44;5352475;27;20667;-61
2022/04/19 04:25:49;;;;;;;21.10;15.15;;;;;;;4.86;85.03;101251.66;5345459;27;20040;-61
2022/04/19 04:28:21;;;;;;;21.02;15.85;;;;;;;4.88;86.11;101252.44;5349275;27;20022;-61
2022/04/19 04:30:52;;;;;;;22.50;15.32;;;;;;;4.88;85.06;101257.72;5344800;27;20576;-62
2022/04/19 04:33:23;;;;;;;20.42;14.63;;;;;;;4.80;84.25;101244.00;5346730;27;20074;-62
2022/04/19 04:35:55;;;;;;;20.92;15.35;;;;;;;4.81;84.25;101247.50;5343343;27;20049;-62
2022/04/19 04:38:26;;;;;;;20.27;14.75;;;;;;;4.85;84.55;101247.31;5348455;27;20487;-61
2022/04/19 04:40:58;;;;;;;20.05;15.00;;;;;;;4.90;86.96;101255.84;5327001;27;20054;-62
2022/04/19 04:43:29;;;;;;;25.35;15.27;;;;;;;4.81;85.16;101247.50;5345132;27;20118;-62
2022/04/19 04:51:40;;;;;;;21.38;15.73;;;;;;;4.70;85.25;101253.28;5342537;27;20038;-62
2022/04/19 04:54:11;;;;;;;24.63;15.73;;;;;;;4.75;86.98;101256.56;5355097;27;20401;-63
2022/04/19 04:56:43;;;;;;;21.63;14.95;;;;;;;4.73;86.42;101266.34;5346443;27;20043;-62
2022/04/19 04:59:14;;;;;;;22.75;16.17;;;;;;;4.85;87.77;101257.00;5342005;27;20046;-62
2022/04/19 05:01:45;;;;;;;21.05;15.98;;;;;;;4.78;86.15;101259.06;5347784;27;20034;-62
2022/04/19 05:04:16;;;;;;;22.10;15.88;;;;;;;4.80;86.48;101259.00;5349461;27;20646;-62
2022/04/19 05:06:47;;;;;;;23.83;15.48;;;;;;;4.85;85.59;101257.88;5345250;27;20030;-62
2022/04/19 05:09:19;;;;;;;21.13;14.90;;;;;;;4.87;85.37;101265.72;5351537;27;20049;-62
2022/04/19 05:11:52;;;;;;;21.98;14.95;;;;;;;4.86;85.15;101254.28;5354682;27;20593;-62
2022/04/19 05:14:24;;;;;;;22.00;15.53;;;;;;;4.94;86.89;101259.22;5349171;27;20045;-62
2022/04/19 05:16:55;;;;;;;21.48;16.05;;;;;;;4.95;86.13;101260.06;5345462;27;20061;-62
2022/04/19 05:19:27;;;;;;;22.98;15.45;;;;;;;5.05;85.83;101269.31;5348036;27;20469;-62
2022/04/19 05:21:58;;;;;;;23.58;15.55;;;;;;;5.04;85.01;101262.28;5349268;27;20023;-62
2022/04/19 05:24:29;;;;;;;22.48;15.73;;;;;;;5.14;83.92;101266.25;5350973;27;20060;-62
2022/04/19 05:27:00;;;;;;;21.27;15.30;;;;;;;5.19;84.06;101261.56;5342870;27;20808;-62
2022/04/19 05:29:32;;;;;;;22.75;15.93;;;;;;;5.28;83.73;101273.53;5346467;27;20387;-62
2022/04/19 05:32:04;;;;;;;25.45;16.58;;;;;;;5.37;83.21;101265.16;5342905;27;20113;-62
2022/04/19 05:34:35;;;;;;;21.55;15.75;;;;;;;5.44;82.27;101263.06;5345294;27;20042;-62
2022/04/19 05:37:07;;;;;;;21.08;15.40;;;;;;;5.51;81.68;101275.06;5345287;27;20042;-62
2022/04/19 05:39:38;;;;;;;23.90;16.17;;;;;;;5.55;81.37;101263.38;5351711;27;20055;-62
2022/04/19 05:42:09;;;;;;;24.58;15.73;;;;;;;5.66;81.20;101271.66;5347678;27;20034;-62
2022/04/19 05:44:40;;;;;;;27.48;16.15;;;;;;;5.74;81.18;101259.84;5355966;27;20114;-62
2022/04/19 05:47:14;;;;;;;23.10;15.90;;;;;;;5.81;80.17;101270.06;5347705;27;20524;-62
2022/04/19 05:49:45;;;;;;;24.20;15.00;;;;;;;5.86;79.56;101261.88;5356233;27;20034;-62
2022/04/19 05:52:17;;;;;;;21.80;15.45;;;;;;;6.02;79.62;101264.63;5334925;27;20026;-61
2022/04/19 05:54:49;;;;;;;21.90;15.90;;;;;;;6.07;78.44;101270.56;5359528;27;20030;-62
2022/04/19 05:57:20;;;;;;;22.85;15.23;;;;;;;6.23;78.58;101281.22;5333866;27;20026;-62
2022/04/19 05:59:51;;;;;;;21.83;14.55;;;;;;;6.27;78.08;101274.81;5353283;27;20018;-62
2022/04/19 06:05:12;;;;;;;23.35;15.52;;;;;;;6.45;77.19;101279.19;5358819;27;20042;-62
2022/04/19 06:07:45;;;;;;;22.30;14.27;;;;;;;6.53;76.96;101278.78;5354833;27;20054;-62
2022/04/19 06:10:17;;;;;;;21.48;15.25;;;;;;;6.62;76.75;101278.28;5361815;27;20524;-62
2022/04/19 06:12:48;;;;;;;22.42;15.30;;;;;;;6.73;76.96;101280.38;5363034;27;20107;-62
2022/04/19 06:15:20;;;;;;;19.42;14.38;;;;;;;6.87;74.95;101277.00;5357548;27;20058;-62
2022/04/19 06:17:51;;;;;;;18.55;13.02;;;;;;;7.01;74.34;101282.38;5361350;27;20027;-62
2022/04/19 06:20:22;;;;;;;19.65;13.65;;;;;;;7.17;73.33;101289.50;5351749;27;20039;-62
2022/04/19 06:22:53;;;;;;;21.02;13.80;;;;;;;7.23;74.20;101289.19;5358755;27;20041;-62
2022/04/19 06:25:25;;;;;;;19.35;13.50;;;;;;;7.33;73.28;101286.88;5355756;27;20039;-61
2022/04/19 06:27:57;;;;;;;20.50;13.52;;;;;;;7.53;71.77;101281.28;5357239;27;20115;-62
2022/04/19 06:30:28;;;;;;;18.83;12.60;;;;;;;7.62;71.08;101294.03;5352329;27;20512;-61
2022/04/19 06:32:59;;;;;;;20.48;12.93;;;;;;;7.78;71.76;101288.69;5336985;27;20058;-62
2022/04/19 06:35:30;;;;;;;19.10;12.52;;;;;;;7.89;71.38;101287.25;5317579;27;20027;-61
2022/04/19 06:38:02;;;;;;;19.92;12.50;;;;;;;8.14;69.41;101289.31;5322619;27;20072;-62
2022/04/19 06:40:34;;;;;;;18.55;12.48;;;;;;;8.25;69.42;101289.53;5332385;27;20085;-61
2022/04/19 06:43:05;;;;;;;19.35;12.32;;;;;;;8.41;67.91;101284.16;5342591;27;20061;-61
2022/04/19 06:45:36;;;;;;;18.73;12.00;;;;;;;8.57;67.49;101284.09;5347281;27;20053;-62
2022/04/19 06:48:08;;;;;;;17.63;11.98;;;;;;;8.70;67.02;101293.03;5350561;27;20037;-61
2022/04/19 06:50:39;;;;;;;17.92;12.40;;;;;;;8.85;67.33;101296.56;5347880;27;20035;-67
2022/04/19 06:53:10;;;;;;;18.55;12.10;;;;;;;9.03;67.34;101297.19;5347960;27;20027;-66
2022/04/19 06:55:42;;;;;;;20.08;12.18;;;;;;;9.22;65.30;101291.56;5346695;27;20046;-66
2022/04/19 06:58:13;;;;;;;17.33;11.63;;;;;;;9.35;64.89;101287.19;5348857;27;20583;-66
2022/04/19 07:00:45;;;;;;;17.67;11.55;;;;;;;9.57;64.64;101291.97;5346174;27;20031;-66
2022/04/19 07:03:17;;;;;;;16.80;11.18;;;;;;;9.71;63.80;101285.75;5347648;27;20396;-66
2022/04/19 07:05:48;;;;;;;17.45;12.02;;;;;;;9.89;64.07;101291.66;5344628;27;20069;-66
2022/04/19 07:08:19;;;;;;;17.45;11.82;;;;;;;10.05;63.13;101288.84;5346372;27;20446;-66
2022/04/19 07:10:51;;;;;;;17.00;11.40;;;;;;;10.20;61.43;101294.94;5346897;27;20475;-66
2022/04/19 07:13:23;;;;;;;18.80;11.52;;;;;;;10.44;60.99;101296.94;5348389;27;20030;-66
2022/04/19 07:15:55;;;;;;;16.33;12.00;;;;;;;10.54;61.86;101293.50;5342439;27;20507;-66
2022/04/19 07:18:26;;;;;;;16.92;12.38;;;;;;;10.68;61.61;101294.34;5344098;27;20031;-66
2022/04/19 07:26:37;;;;;;;15.07;10.55;;;;;;;11.27;57.68;101305.28;5342293;27;20035;-66
2022/04/19 07:29:10;;;;;;;18.45;11.20;;;;;;;11.40;57.55;101304.41;5345002;27;20031;-66
2022/04/19 07:31:44;;;;;;;16.25;10.55;;;;;;;11.52;57.54;101301.69;5344994;27;20408;-67
2022/04/19 07:34:16;;;;;;;16.75;10.57;;;;;;;11.61;57.71;101305.50;5346765;27;20188;-64
2022/04/19 07:36:47;;;;;;;16.20;10.77;;;;;;;11.69;57.34;101319.16;5350505;27;20519;-65
2022/04/19 07:39:19;;;;;;;15.38;9.90;;;;;;;11.89;55.97;101308.78;5349291;27;20027;-66
2022/04/19 07:41:50;;;;;;;14.65;10.25;;;;;;;12.06;55.89;101311.13;5346831;27;20069;-66
2022/04/19 07:44:22;;;;;;;15.75;10.35;;;;;;;12.21;54.57;101311.75;5348054;27;20031;-66
2022/04/19 07:46:54;;;;;;;15.73;9.93;;;;;;;12.38;53.43;101314.97;5347279;27;20035;-66
2022/04/19 07:49:25;;;;;;;17.83;10.50;;;;;;;12.43;54.53;101310.97;5344012;27;20039;-66
2022/04/19 07:51:56;;;;;;;13.98;9.35;;;;;;;12.48;55.34;101315.97;5346970;27;20543;-66
2022/04/19 07:54:28;;;;;;;16.25;9.98;;;;;;;12.63;55.32;101309.44;5345095;27;20041;-67
2022/04/19 07:56:59;;;;;;;13.43;9.35;;;;;;;12.70;53.22;101307.97;5346899;27;20063;-66
2022/04/19 07:59:30;;;;;;;13.23;8.65;;;;;;;12.89;52.63;101315.44;5346298;27;20023;-67
2022/04/19 08:02:02;;;;;;;14.00;9.55;;;;;;;12.93;51.75;101311.53;5344132;27;20031;-67
2022/04/19 08:04:33;;;;;;;14.20;8.90;;;;;;;13.21;50.99;101313.84;5350338;27;20109;-66
2022/04/19 08:07:05;;;;;;;15.27;9.13;;;;;;;13.26;51.75;101317.00;5358719;27;20019;-67
2022/04/19 08:09:36;;;;;;;12.07;7.93;;;;;;;13.34;51.33;101306.53;5354402;27;20054;-66
2022/04/19 08:12:08;;;;;;;14.40;8.60;;;;;;;13.39;51.73;101306.19;5356785;27;20037;-66
2022/04/19 08:14:42;;;;;;;15.48;9.55;;;;;;;13.51;50.26;101303.34;5356474;27;20023;-67
2022/04/19 08:17:14;;;;;;;17.73;9.27;;;;;;;13.71;51.16;101311.56;5346939;27;20031;-66
2022/04/19 08:19:45;;;;;;;15.90;9.43;;;;;;;13.79;51.19;101306.44;5356493;27;20029;-67
2022/04/19 08:22:16;;;;;;;14.93;9.20;;;;;;;13.84;50.76;101300.69;5354740;27;20022;-66
2022/04/19 08:24:47;;;;;;;12.98;8.55;;;;;;;14.01;48.53;101293.94;5358536;27;20372;-67
2022/04/19 08:27:19;;;;;;;14.20;8.00;;;;;;;14.12;47.70;101302.78;5358743;27;20062;-67
2022/04/19 08:29:50;;;;;;;13.18;7.80;;;;;;;14.14;46.47;101296.44;5351118;27;20461;-67
2022/04/19 08:32:22;;;;;;;13.52;8.60;;;;;;;14.23;46.12;101303.69;5348151;27;20060;-67
2022/04/19 08:34:56;;;;;;;15.05;7.72;;;;;;;14.51;46.67;101296.81;5356407;27;20023;-67
2022/04/19 08:37:34;;;;;;;13.85;8.15;;;;;;;14.49;47.33;101299.63;5362914;27;20033;-67
2022/04/19 08:40:09;;;;;;;13.85;8.43;;;;;;;14.56;46.22;101297.28;5355155;27;20109;-67
2022/04/19 08:42:41;;;;;;;15.35;7.97;;;;;;;14.65;45.69;101296.53;5355120;27;20027;-67
2022/04/19 08:45:15;;;;;;;16.08;8.10;;;;;;;14.81;46.25;101295.19;5349501;27;20369;-67
2022/04/19 08:47:47;;;;;;;12.30;7.63;;;;;;;14.86;45.56;101301.88;5356598;27;20035;-67
2022/04/19 08:50:20;;;;;;;12.95;7.88;;;;;;;14.98;44.72;101288.34;5357140;27;20029;-67
2022/04/19 08:57:29;;;;;;;12.65;7.88;;;;;;;15.16;44.64;101300.13;5355909;27;20100;-67
2022/04/19 08:58:32;;;;;;;10.27;5.75;;;;;;;15.41;43.74;101298.78;5355755;27;20502;-67
2022/04/19 09:01:04;;;;;;;9.60;5.35;;;;;;;15.58;44.31;101297.28;5357186;27;20030;-67
2022/04/19 09:03:37;;;;;;;9.88;5.35;;;;;;;15.61;43.54;101294.31;5353544;27;20022;-68
2022/04/19 09:06:09;;;;;;;12.95;5.15;;;;;;;15.80;41.28;101293.53;5357466;27;20027;-67
2022/04/19 09:08:40;;;;;;;7.45;4.57;;;;;;;15.82;42.29;101296.91;5359328;27;20424;-67
2022/04/19 09:11:12;;;;;;;9.48;5.03;;;;;;;15.97;41.70;101299.19;5354990;27;20101;-67
2022/04/19 09:13:44;;;;;;;8.90;5.57;;;;;;;15.94;42.00;101289.56;5354211;27;20038;-68
2022/04/19 09:16:15;;;;;;;8.13;5.00;;;;;;;16.00;41.52;101288.16;5347073;27;20042;-67
2022/04/19 09:18:46;;;;;;;9.93;5.18;;;;;;;15.95;43.17;101275.09;5355399;27;20029;-67
2022/04/19 09:21:36;;;;;;;9.25;5.97;;;;;;;16.00;41.41;101285.44;5352550;27;20027;-67
2022/04/19 09:24:18;;;;;;;9.45;5.97;;;;;;;16.03;42.59;101280.63;5333252;27;20037;-65
2022/04/19 09:26:49;;;;;;;9.70;5.53;;;;;;;16.08;42.98;101283.72;5345036;27;20114;-64
2022/04/19 09:29:26;;;;;;;9.95;5.82;;;;;;;16.19;41.87;101276.50;5356492;27;20469;-65
2022/04/19 09:31:58;;;;;;;9.02;5.28;;;;;;;16.17;40.05;101273.97;5353425;27;20130;-65
2022/04/19 09:34:33;;;;;;;8.45;5.25;;;;;;;16.17;40.83;101279.34;5357100;27;20031;-64
2022/04/19 09:37:10;;;;;;;8.25;5.00;;;;;;;16.34;40.52;101277.75;5332012;27;20027;-67
2022/04/19 09:39:44;;;;;;;8.15;4.70;;;;;;;16.39;39.91;101282.72;5354456;27;20030;-67
2022/04/19 09:42:15;;;;;;;9.48;4.97;;;;;;;16.38;42.03;101279.16;5355306;27;20027;-67
2022/04/19 09:44:53;;;;;;;8.57;4.70;;;;;;;16.47;40.44;101280.13;5340129;27;20513;-67
2022/04/19 09:47:24;;;;;;;7.88;4.72;;;;;;;16.54;39.41;101275.03;5354293;27;20408;-67
2022/04/19 09:49:58;;;;;;;11.65;5.18;;;;;;;16.42;40.38;101279.75;5357209;27;20027;-67
2022/04/19 09:52:30;;;;;;;7.38;4.50;;;;;;;16.66;39.68;101273.84;5355244;27;20498;-67
2022/04/19 09:55:08;;;;;;;8.95;4.60;;;;;;;16.61;40.09;101271.59;5355289;27;20046;-67
2022/04/19 09:57:41;;;;;;;9.38;4.80;;;;;;;16.80;38.64;101265.31;5356410;27;20022;-67
2022/04/19 10:00:14;;;;;;;9.85;4.97;;;;;;;16.82;38.06;101275.97;5356897;27;20078;-67
2022/04/19 10:08:26;;;;;;;9.63;4.50;;;;;;;16.88;38.04;101272.69;5348933;27;20035;-67
2022/04/19 10:10:58;;;;;;;9.02;4.78;;;;;;;17.02;39.52;101266.78;5350756;27;20026;-67
2022/04/19 10:13:32;;;;;;;9.15;5.22;;;;;;;17.02;37.33;101261.38;5353258;27;20027;-67
2022/04/19 10:16:04;;;;;;;;;;;;;;;17.04;39.86;101256.69;5342240;27;20078;-67
2022/04/19 10:18:36;;;;;;;7.50;4.65;;;;;;;17.15;38.00;101257.50;5355430;27;19919;-67
2022/04/19 10:21:09;;;;;;;8.30;4.50;;;;;;;17.17;37.73;101261.75;5347656;27;20037;-67
2022/04/19 10:23:42;;;;;;;7.28;4.57;;;;;;;17.24;39.06;101259.31;5355146;27;20039;-67
2022/04/19 10:26:18;;;;;;;8.80;4.43;;;;;;;17.21;39.06;101265.84;5339522;27;20365;-67
2022/04/19 10:28:51;;;;;;;8.85;4.57;;;;;;;17.34;38.15;101261.94;5346815;27;20031;-67
2022/04/19 10:31:25;;;;;;;10.50;5.40;;;;;;;17.22;37.42;101261.28;5355713;27;20041;-65
2022/04/19 10:34:01;;;;;;;8.32;5.70;;;;;;;17.20;39.26;101263.28;5349485;27;20088;-65
2022/04/19 10:36:32;;;;;;;9.75;5.07;;;;;;;17.33;37.81;101257.53;5351750;27;20055;-64
2022/04/19 10:39:13;;;;;;;7.80;4.83;;;;;;;17.39;38.08;101251.53;5360669;27;20543;-65
2022/04/19 10:42:11;;;;;;;10.32;5.55;;;;;;;17.42;38.10;101265.56;5351995;27;20288;-64
2022/04/19 10:44:43;;;;;;;12.52;5.60;;;;;;;17.48;37.45;101253.31;5327772;27;20035;-63
2022/04/19 10:47:19;;;;;;;8.73;5.18;;;;;;;17.55;38.24;101256.28;5356719;27;20033;-64
2022/04/19 10:49:56;;;;;;;7.93;5.00;;;;;;;17.56;36.60;101252.56;5357922;27;20038;-65
2022/04/19 10:52:44;;;;;;;9.30;5.15;;;;;;;17.54;37.74;101246.47;5349313;27;20471;-67
2022/04/19 10:55:24;;;;;;;8.30;4.90;;;;;;;17.56;37.04;101244.47;5359750;27;20103;-66
2022/04/19 10:58:17;;;;;;;9.05;5.10;;;;;;;17.67;38.40;101238.00;5353981;27;20660;-66
2022/04/19 11:01:00;;;;;;;7.95;4.28;;;;;;;17.73;36.78;101238.22;5351469;27;20563;-66
2022/04/19 11:03:37;;;;;;;7.75;4.40;;;;;;;17.64;35.51;101228.34;5354696;27;20543;-65
2022/04/19 11:06:35;;;;;;;7.40;4.35;;;;;;;17.68;37.59;101221.66;5364103;27;20038;-66
2022/04/19 11:09:16;;;;;;;7.30;4.20;;;;;;;17.84;35.86;101223.69;5351204;27;20052;-67
2022/04/19 11:11:52;;;;;;;7.25;4.22;;;;;;;17.91;36.82;101226.59;5362138;27;20034;-67
2022/04/19 11:14:29;;;;;;;8.50;5.10;;;;;;;17.94;36.55;101224.44;5356923;27;20067;-68
2022/04/19 11:17:41;;;;;;;8.70;4.82;;;;;;;17.94;37.97;101223.59;5363380;27;20579;-67
2022/04/19 11:20:14;;;;;;;10.68;5.18;;;;;;;18.00;37.18;101225.66;5273261;28;20575;-67
2022/04/19 11:23:01;;;;;;;10.68;4.97;;;;;;;18.02;36.31;101219.13;5346214;27;20114;-67
2022/04/19 11:25:39;;;;;;;8.70;5.18;;;;;;;18.06;35.47;101221.47;5329324;27;20027;-67
2022/04/19 11:28:11;;;;;;;9.52;5.50;;;;;;;18.02;35.40;101215.53;5362093;27;20447;-67
2022/04/19 11:31:05;;;;;;;8.00;4.90;;;;;;;18.08;36.77;101214.91;5354065;27;20027;-67
2022/04/19 11:33:36;;;;;;;10.05;5.05;;;;;;;18.08;35.63;101209.50;5353808;27;20038;-67
2022/04/19 11:36:15;;;;;;;10.40;5.32;;;;;;;18.17;35.21;101211.25;5361656;27;20029;-67
2022/04/19 11:38:48;;;;;;;9.55;5.18;;;;;;;18.22;36.36;101225.16;5352215;27;20017;-68
2022/04/19 11:46:48;;;;;;;8.63;4.97;;;;;;;18.26;35.72;101217.59;5353760;27;20038;-65
2022/04/19 11:49:19;;;;;;;10.57;5.10;;;;;;;18.32;35.96;101210.69;5359443;27;20030;-64
2022/04/19 11:51:52;;;;;;;11.27;5.53;;;;;;;18.38;35.28;101212.75;5357560;27;20026;-65
2022/04/19 11:54:24;;;;;;;11.32;5.85;;;;;;;18.29;35.83;101209.16;5351112;27;20299;-65
2022/04/19 11:57:10;;;;;;;8.43;4.78;;;;;;;18.45;35.20;101219.22;5359699;27;20105;-65
2022/04/19 11:59:42;;;;;;;8.50;5.30;;;;;;;18.42;35.62;101208.72;5352129;27;20027;-65
2022/04/19 12:02:17;;;;;;;11.30;5.22;;;;;;;18.50;33.85;101211.47;5361411;27;20443;-65
2022/04/19 12:04:50;;;;;;;9.75;4.75;;;;;;;18.55;33.98;101217.25;5355640;27;20010;-65
2022/04/19 12:07:24;;;;;;;8.15;4.72;;;;;;;18.51;33.59;101207.78;5361312;27;20073;-65
2022/04/19 12:09:57;;;;;;;;;;;;;;;18.54;36.30;101203.88;5362691;27;20033;-65
2022/04/19 12:12:28;;;;;;;9.18;4.60;;;;;;;18.64;34.05;101206.47;5356937;27;20423;-65
2022/04/19 12:14:59;;;;;;;8.52;5.10;;;;;;;18.60;36.19;101200.53;5355752;27;20039;-64
2022/04/19 12:17:31;;;;;;;10.38;4.97;;;;;;;18.71;33.93;101199.41;5357596;27;20508;-65